createdAt,value
2022-07-30T00:02:27.307Z,11.00
2022-07-30T00:05:13.608Z,8.88
2022-07-30T00:08:00.352Z,8.82
2022-07-30T00:10:43.993Z,11.10
2022-07-30T00:13:24.361Z,8.48
2022-07-30T00:16:03.181Z,8.02
2022-07-30T00:18:43.085Z,10.70
2022-07-30T00:21:36.231Z,7.57
2022-07-30T00:24:21.011Z,7.60
2022-07-30T00:29:36.721Z,7.85
2022-07-30T00:32:33.950Z,9.25
2022-07-30T00:35:14.435Z,9.02
2022-07-30T00:37:46.675Z,7.60
2022-07-30T00:40:24.400Z,8.57
2022-07-30T00:43:28.897Z,11.75
2022-07-30T00:46:10.660Z,10.70
2022-07-30T00:48:46.384Z,13.00
2022-07-30T00:51:36.133Z,11.10
2022-07-30T00:54:25.412Z,8.20
2022-07-30T00:57:05.905Z,8.70
2022-07-30T00:59:39.952Z,9.65
2022-07-30T01:02:21.328Z,11.50
2022-07-30T01:04:57.218Z,10.40
2022-07-30T01:07:39.606Z,9.48
2022-07-30T01:10:24.843Z,9.98
2022-07-30T01:13:02.186Z,8.98
2022-07-30T01:15:38.509Z,7.85
2022-07-30T01:18:14.963Z,7.75
2022-07-30T01:21:06.390Z,9.07
2022-07-30T01:23:50.418Z,10.93
2022-07-30T01:26:40.064Z,9.02
2022-07-30T01:29:21.592Z,11.60
2022-07-30T01:32:16.435Z,10.80
2022-07-30T01:35:05.780Z,8.43
2022-07-30T01:38:01.610Z,14.13
2022-07-30T01:40:40.739Z,9.73
2022-07-30T01:43:30.958Z,10.27
2022-07-30T01:46:11.157Z,12.23
2022-07-30T01:48:44.140Z,9.95
2022-07-30T01:51:20.024Z,9.45
2022-07-30T01:53:59.433Z,9.02
2022-07-30T01:57:00.391Z,8.93
2022-07-30T01:59:45.075Z,10.88
2022-07-30T02:02:34.608Z,8.13
2022-07-30T02:05:15.780Z,7.65
2022-07-30T02:08:25.235Z,8.45
2022-07-30T02:11:34.975Z,9.70
2022-07-30T02:14:31.723Z,8.55
2022-07-30T02:17:30.235Z,6.35
2022-07-30T02:20:25.149Z,10.48
2022-07-30T02:23:13.735Z,7.55
2022-07-30T02:25:57.753Z,7.82
2022-07-30T02:28:45.641Z,7.05
2022-07-30T02:31:35.202Z,9.70
2022-07-30T02:34:17.788Z,6.80
2022-07-30T02:36:58.842Z,8.55
2022-07-30T02:39:41.231Z,8.95
2022-07-30T02:42:18.247Z,10.77
2022-07-30T02:45:05.185Z,11.52
2022-07-30T02:48:02.956Z,9.85
2022-07-30T02:50:30.985Z,13.70
2022-07-30T02:53:14.617Z,9.25
2022-07-30T02:55:48.979Z,9.77
2022-07-30T02:58:28.266Z,10.85
2022-07-30T03:01:06.093Z,10.18
2022-07-30T03:03:51.612Z,12.23
2022-07-30T03:06:26.632Z,12.82
2022-07-30T03:09:11.929Z,13.93
2022-07-30T03:12:05.078Z,14.20
2022-07-30T03:14:55.267Z,12.48
2022-07-30T03:17:35.132Z,13.35
2022-07-30T03:20:09.462Z,13.73
2022-07-30T03:22:52.727Z,12.90
2022-07-30T03:25:30.943Z,13.30
2022-07-30T03:28:04.876Z,12.75
2022-07-30T03:30:39.036Z,12.70
2022-07-30T03:33:13.141Z,12.15
2022-07-30T03:35:54.372Z,12.20
2022-07-30T03:38:28.333Z,12.73
2022-07-30T03:41:11.220Z,12.70
2022-07-30T03:43:57.961Z,17.00
2022-07-30T03:46:40.297Z,15.57
2022-07-30T03:49:28.274Z,15.77
2022-07-30T03:51:59.950Z,17.17
2022-07-30T03:54:28.329Z,17.23
2022-07-30T03:57:35.205Z,15.82
2022-07-30T04:00:08.201Z,17.88
2022-07-30T04:02:49.887Z,19.90
2022-07-30T04:05:55.770Z,19.95
2022-07-30T04:08:38.066Z,21.40
2022-07-30T04:11:16.062Z,21.08
2022-07-30T04:13:50.921Z,19.70
2022-07-30T04:16:42.149Z,19.10
2022-07-30T04:19:26.982Z,16.98
2022-07-30T04:22:05.017Z,18.75
2022-07-30T04:24:55.452Z,16.42
2022-07-30T04:27:40.202Z,15.30
2022-07-30T04:30:44.260Z,14.35
2022-07-30T04:33:20.080Z,13.48
2022-07-30T04:36:48.161Z,14.95
2022-07-30T04:39:26.786Z,11.57
2022-07-30T04:41:59.806Z,11.95
2022-07-30T04:44:56.356Z,11.40
2022-07-30T04:50:39.253Z,8.55
2022-07-30T04:53:27.947Z,9.27
2022-07-30T04:56:07.131Z,11.88
2022-07-30T04:58:57.550Z,7.40
2022-07-30T05:01:46.810Z,12.88
2022-07-30T05:04:18.548Z,9.70
2022-07-30T05:07:08.912Z,10.10
2022-07-30T05:09:36.673Z,7.80
2022-07-30T05:12:21.513Z,8.73
2022-07-30T05:14:55.485Z,7.78
2022-07-30T05:17:34.269Z,8.93
2022-07-30T05:20:15.019Z,7.95
2022-07-30T05:23:08.151Z,7.18
2022-07-30T05:25:39.542Z,6.40
2022-07-30T05:28:32.364Z,10.98
2022-07-30T05:31:08.638Z,8.30
2022-07-30T05:33:43.015Z,7.55
2022-07-30T05:36:30.066Z,6.07
2022-07-30T05:39:10.539Z,6.47
2022-07-30T05:42:17.676Z,5.43
2022-07-30T05:45:00.459Z,6.30
2022-07-30T05:47:36.558Z,4.45
2022-07-30T05:50:12.848Z,3.88
2022-07-30T05:52:59.062Z,5.15
2022-07-30T05:56:21.122Z,5.95
2022-07-30T05:59:17.370Z,7.05
2022-07-30T06:02:27.286Z,5.97
2022-07-30T06:05:03.480Z,5.40
2022-07-30T06:07:48.779Z,8.65
2022-07-30T06:10:35.336Z,13.02
2022-07-30T06:13:07.983Z,8.02
2022-07-30T06:15:54.378Z,16.80
2022-07-30T06:18:44.233Z,9.05
2022-07-30T06:22:05.335Z,8.80
2022-07-30T06:24:36.167Z,9.65
2022-07-30T06:27:16.520Z,10.57
2022-07-30T06:29:57.557Z,14.50
2022-07-30T06:32:39.195Z,16.70
2022-07-30T06:35:13.621Z,18.27
2022-07-30T06:38:05.612Z,13.52
2022-07-30T06:41:04.439Z,10.95
2022-07-30T06:44:03.136Z,12.63
2022-07-30T06:47:11.670Z,13.70
2022-07-30T06:49:54.029Z,11.52
2022-07-30T06:52:32.335Z,12.43
2022-07-30T06:55:00.798Z,14.63
2022-07-30T06:57:49.603Z,19.90
2022-07-30T07:00:58.278Z,13.35
2022-07-30T07:03:39.867Z,14.13
2022-07-30T07:06:16.374Z,10.60
2022-07-30T07:08:48.332Z,13.82
2022-07-30T07:11:43.656Z,15.80
2022-07-30T07:14:26.170Z,9.50
2022-07-30T07:17:05.580Z,11.68
2022-07-30T07:20:02.724Z,15.93
2022-07-30T07:22:45.309Z,11.00
2022-07-30T07:25:23.976Z,8.73
2022-07-30T07:28:14.228Z,8.00
2022-07-30T07:30:58.156Z,7.85
2022-07-30T07:33:48.622Z,9.02
2022-07-30T07:36:29.913Z,5.90
2022-07-30T07:39:20.389Z,8.60
2022-07-30T07:41:59.374Z,11.30
2022-07-30T07:44:45.204Z,5.97
2022-07-30T07:47:22.184Z,8.70
2022-07-30T07:50:07.847Z,9.70
2022-07-30T07:52:48.858Z,11.02
2022-07-30T07:55:27.099Z,8.70
2022-07-30T07:57:58.212Z,6.93
2022-07-30T08:00:36.174Z,7.65
2022-07-30T08:03:08.434Z,6.95
2022-07-30T08:05:58.192Z,6.15
2022-07-30T08:09:03.211Z,6.07
2022-07-30T08:12:06.856Z,8.02
2022-07-30T08:15:04.174Z,9.50
2022-07-30T08:18:02.571Z,5.88
2022-07-30T08:20:50.575Z,7.43
2022-07-30T08:23:27.168Z,8.98
2022-07-30T08:26:08.115Z,7.13
2022-07-30T08:28:46.180Z,7.63
2022-07-30T08:31:13.531Z,8.10
2022-07-30T08:33:46.974Z,7.22
2022-07-30T08:36:25.967Z,8.45
2022-07-30T08:39:13.031Z,8.43
2022-07-30T08:41:54.562Z,10.82
2022-07-30T08:44:27.368Z,10.23
2022-07-30T08:47:18.384Z,12.23
2022-07-30T08:50:21.225Z,11.77
2022-07-30T08:53:16.087Z,11.85
2022-07-30T08:56:00.782Z,12.25
2022-07-30T08:58:40.445Z,9.60
2022-07-30T09:01:27.434Z,10.05
2022-07-30T09:04:08.449Z,12.52
2022-07-30T09:06:40.934Z,11.40
2022-07-30T09:09:26.180Z,17.52
2022-07-30T09:11:55.894Z,17.40
2022-07-30T09:14:30.886Z,21.52
2022-07-30T09:17:13.821Z,10.25
2022-07-30T09:20:11.438Z,11.00
2022-07-30T09:23:00.178Z,21.60
2022-07-30T09:25:44.167Z,10.68
2022-07-30T09:28:35.335Z,15.05
2022-07-30T09:32:04.450Z,11.60
2022-07-30T09:35:19.206Z,8.10
2022-07-30T09:38:16.673Z,12.63
2022-07-30T09:41:17.247Z,8.30
2022-07-30T09:44:33.887Z,7.93
2022-07-30T09:47:28.735Z,10.30
2022-07-30T09:50:29.558Z,9.93
2022-07-30T09:53:15.185Z,8.70
2022-07-30T09:55:49.273Z,10.40
2022-07-30T09:58:27.089Z,11.75
2022-07-30T10:01:13.623Z,11.45
2022-07-30T10:03:52.048Z,11.52
2022-07-30T10:06:41.813Z,14.45
2022-07-30T10:09:45.471Z,11.75
2022-07-30T10:12:32.894Z,12.30
2022-07-30T10:15:06.250Z,14.23
2022-07-30T10:17:41.815Z,19.23
2022-07-30T10:20:43.713Z,13.80
2022-07-30T10:23:45.464Z,16.27
2022-07-30T10:26:51.759Z,22.08
2022-07-30T10:30:08.667Z,23.58
2022-07-30T10:32:44.814Z,21.00
2022-07-30T10:35:42.262Z,31.33
2022-07-30T10:38:20.896Z,31.90
2022-07-30T10:41:08.197Z,24.13
2022-07-30T10:44:15.760Z,27.08
2022-07-30T10:47:18.657Z,27.35
2022-07-30T10:50:15.500Z,27.85
2022-07-30T10:53:03.136Z,26.55
2022-07-30T10:55:37.628Z,29.20
2022-07-30T10:58:22.846Z,31.23
2022-07-30T11:01:18.054Z,31.95
2022-07-30T11:04:20.479Z,34.15
2022-07-30T11:07:23.630Z,35.78
2022-07-30T11:10:05.321Z,41.80
2022-07-30T11:13:11.062Z,42.05
2022-07-30T11:15:59.822Z,42.83
2022-07-30T11:19:19.641Z,38.15
2022-07-30T11:22:26.072Z,39.88
2022-07-30T11:25:13.000Z,39.72
2022-07-30T11:27:51.799Z,35.78
2022-07-30T11:30:49.601Z,33.85
2022-07-30T11:33:32.898Z,28.63
2022-07-30T11:36:15.314Z,30.30
2022-07-30T11:39:06.828Z,34.22
2022-07-30T11:42:05.230Z,40.90
2022-07-30T11:44:42.714Z,36.97
2022-07-30T11:47:12.674Z,54.63
2022-07-30T11:49:50.934Z,70.00
2022-07-30T11:52:34.837Z,53.67
2022-07-30T11:57:46.551Z,48.40
2022-07-30T12:00:22.006Z,57.90
2022-07-30T12:03:04.230Z,23.02
2022-07-30T12:05:45.823Z,27.40
2022-07-30T12:08:38.952Z,16.10
2022-07-30T12:11:16.342Z,23.83
2022-07-30T12:13:47.948Z,20.23
2022-07-30T12:16:25.407Z,6.75
2022-07-30T12:18:58.113Z,4.30
2022-07-30T12:21:25.140Z,2.85
2022-07-30T12:24:15.126Z,3.00
2022-07-30T12:26:55.905Z,5.85
2022-07-30T12:29:39.487Z,3.17
2022-07-30T12:32:10.161Z,3.97
2022-07-30T12:35:02.093Z,5.22
2022-07-30T12:37:40.206Z,1.50
2022-07-30T12:40:14.594Z,3.25
2022-07-30T12:43:02.598Z,2.63
2022-07-30T12:45:50.491Z,2.65
2022-07-30T12:48:35.870Z,3.08
2022-07-30T12:51:22.553Z,2.80
2022-07-30T12:53:58.179Z,3.70
2022-07-30T12:56:40.150Z,2.70
2022-07-30T12:59:26.292Z,2.80
2022-07-30T13:01:56.489Z,2.30
2022-07-30T13:04:39.812Z,2.50
2022-07-30T13:07:36.472Z,2.38
2022-07-30T13:10:21.706Z,2.25
2022-07-30T13:13:02.563Z,3.03
2022-07-30T13:15:41.023Z,2.17
2022-07-30T13:18:34.639Z,2.08
2022-07-30T13:21:11.442Z,2.08
2022-07-30T13:23:59.218Z,2.25
2022-07-30T13:26:42.247Z,2.25
2022-07-30T13:29:27.651Z,1.70
2022-07-30T13:32:06.183Z,2.17
2022-07-30T13:34:42.091Z,2.15
2022-07-30T13:37:22.011Z,2.85
2022-07-30T13:40:12.400Z,3.00
2022-07-30T13:42:55.476Z,1.60
2022-07-30T13:45:33.415Z,1.90
2022-07-30T13:48:06.103Z,5.35
2022-07-30T13:50:53.006Z,1.52
2022-07-30T13:53:41.185Z,3.70
2022-07-30T13:56:12.674Z,3.03
2022-07-30T13:58:48.262Z,2.40
2022-07-30T14:01:17.709Z,1.67
2022-07-30T14:03:57.220Z,2.15
2022-07-30T14:06:44.191Z,1.83
2022-07-30T14:09:24.389Z,1.80
2022-07-30T14:12:14.112Z,2.22
2022-07-30T14:14:54.552Z,2.13
2022-07-30T14:17:38.231Z,2.05
2022-07-30T14:20:19.032Z,1.80
2022-07-30T14:25:50.543Z,7.45
2022-07-30T14:28:17.527Z,2.35
2022-07-30T14:30:59.182Z,1.60
2022-07-30T14:33:34.382Z,2.35
2022-07-30T14:36:10.030Z,2.78
2022-07-30T14:38:50.798Z,2.80
2022-07-30T14:41:39.990Z,6.07
2022-07-30T14:44:30.121Z,2.42
2022-07-30T14:47:13.680Z,2.05
2022-07-30T14:49:57.515Z,2.38
2022-07-30T14:55:10.850Z,2.55
2022-07-30T14:57:48.816Z,1.85
2022-07-30T15:00:48.588Z,3.38
2022-07-30T15:03:36.658Z,1.80
2022-07-30T15:06:15.633Z,2.85
2022-07-30T15:08:57.150Z,1.10
2022-07-30T15:11:44.889Z,1.08
2022-07-30T15:14:46.164Z,2.63
2022-07-30T15:17:29.676Z,2.58
2022-07-30T15:20:01.741Z,1.85
2022-07-30T15:22:40.077Z,2.05
2022-07-30T15:25:17.861Z,2.83
2022-07-30T15:27:58.256Z,1.60
2022-07-30T15:30:54.071Z,1.63
2022-07-30T15:33:37.174Z,1.40
2022-07-30T15:36:23.447Z,2.40
2022-07-30T15:39:11.157Z,4.13
2022-07-30T15:41:59.368Z,1.40
2022-07-30T15:45:15.366Z,1.30
2022-07-30T15:47:59.449Z,1.75
2022-07-30T15:50:37.517Z,0.95
2022-07-30T15:53:22.060Z,3.45
2022-07-30T15:56:04.859Z,3.08
2022-07-30T15:58:51.041Z,2.80
2022-07-30T16:04:06.192Z,3.55
2022-07-30T16:07:00.073Z,1.27
2022-07-30T16:09:36.196Z,1.35
2022-07-30T16:12:17.413Z,1.88
2022-07-30T16:14:58.504Z,1.65
2022-07-30T16:17:39.214Z,1.58
2022-07-30T16:20:12.265Z,1.67
2022-07-30T16:23:11.932Z,1.02
2022-07-30T16:25:52.156Z,1.55
2022-07-30T16:28:36.043Z,1.38
2022-07-30T16:31:17.047Z,1.40
2022-07-30T16:33:58.172Z,2.45
2022-07-30T16:36:34.386Z,1.17
2022-07-30T16:39:08.986Z,3.42
2022-07-30T16:41:51.304Z,5.40
2022-07-30T16:44:32.165Z,1.30
2022-07-30T16:47:13.841Z,1.95
2022-07-30T16:49:57.573Z,2.10
2022-07-30T16:52:38.646Z,7.35
2022-07-30T16:55:09.382Z,1.10
2022-07-30T16:57:42.779Z,1.77
2022-07-30T17:00:18.382Z,2.55
2022-07-30T17:02:50.409Z,2.70
2022-07-30T17:05:31.654Z,1.35
2022-07-30T17:08:11.282Z,4.85
2022-07-30T17:10:50.332Z,1.67
2022-07-30T17:13:23.197Z,1.10
2022-07-30T17:16:02.302Z,1.25
2022-07-30T17:18:43.036Z,2.22
2022-07-30T17:21:14.024Z,1.52
2022-07-30T17:23:58.174Z,1.20
2022-07-30T17:26:36.830Z,2.15
2022-07-30T17:29:26.160Z,3.22
2022-07-30T17:32:08.250Z,2.53
2022-07-30T17:34:49.878Z,1.90
2022-07-30T17:37:23.386Z,1.98
2022-07-30T17:40:19.895Z,1.70
2022-07-30T17:43:08.183Z,1.65
2022-07-30T17:45:41.998Z,2.05
2022-07-30T17:48:27.088Z,2.92
2022-07-30T17:51:16.018Z,2.28
2022-07-30T17:53:59.301Z,2.40
2022-07-30T18:01:59.934Z,2.25
2022-07-30T18:04:33.458Z,2.10
2022-07-30T18:07:08.730Z,1.70
2022-07-30T18:09:47.406Z,2.72
2022-07-30T18:12:29.854Z,2.67
2022-07-30T18:15:11.444Z,2.00
2022-07-30T18:17:58.342Z,1.90
2022-07-30T18:20:32.839Z,1.90
2022-07-30T18:23:19.000Z,2.20
2022-07-30T18:26:00.862Z,3.40
2022-07-30T18:28:41.198Z,1.92
2022-07-30T18:31:16.126Z,2.78
2022-07-30T18:33:49.763Z,2.97
2022-07-30T18:39:16.683Z,3.50
2022-07-30T18:41:52.157Z,4.15
2022-07-30T18:44:28.071Z,2.88
2022-07-30T18:47:10.216Z,2.78
2022-07-30T18:49:53.114Z,3.05
2022-07-30T18:52:25.644Z,3.00
2022-07-30T18:55:06.182Z,2.95
2022-07-30T18:57:56.210Z,4.93
2022-07-30T19:00:34.366Z,3.03
2022-07-30T19:03:22.869Z,2.42
2022-07-30T19:06:16.196Z,3.35
2022-07-30T19:09:02.292Z,5.93
2022-07-30T19:11:46.604Z,4.45
2022-07-30T19:14:17.202Z,5.18
2022-07-30T19:16:59.461Z,5.28
2022-07-30T19:19:43.891Z,5.80
2022-07-30T19:22:17.401Z,4.20
2022-07-30T19:25:13.106Z,3.25
2022-07-30T19:27:51.190Z,5.22
2022-07-30T19:30:30.544Z,3.25
2022-07-30T19:33:20.595Z,4.78
2022-07-30T19:35:56.713Z,3.38
2022-07-30T19:38:37.822Z,3.60
2022-07-30T19:41:14.819Z,6.25
2022-07-30T19:43:57.995Z,3.22
2022-07-30T19:46:47.214Z,3.72
2022-07-30T19:49:40.524Z,3.67
2022-07-30T19:52:17.532Z,4.10
2022-07-30T19:55:17.139Z,4.25
2022-07-30T19:58:20.672Z,3.80
2022-07-30T20:01:08.600Z,3.72
2022-07-30T20:04:01.141Z,3.80
2022-07-30T20:06:55.954Z,3.72
2022-07-30T20:09:42.857Z,4.70
2022-07-30T20:12:20.156Z,4.55
2022-07-30T20:15:03.161Z,3.58
2022-07-30T20:17:48.578Z,5.28
2022-07-30T20:20:42.195Z,5.60
2022-07-30T20:23:27.202Z,4.38
2022-07-30T20:26:12.590Z,4.93
2022-07-30T20:28:52.886Z,4.85
2022-07-30T20:31:50.128Z,8.20
2022-07-30T20:34:25.993Z,4.72
2022-07-30T20:36:59.424Z,4.45
2022-07-30T20:40:05.923Z,5.40
2022-07-30T20:42:46.423Z,5.13
2022-07-30T20:45:40.351Z,4.60
2022-07-30T20:48:17.400Z,7.53
2022-07-30T20:51:33.747Z,7.65
2022-07-30T20:54:09.193Z,5.80
2022-07-30T20:56:52.256Z,7.63
2022-07-30T20:59:23.736Z,6.68
2022-07-30T21:01:57.218Z,5.68
2022-07-30T21:04:28.444Z,8.50
2022-07-30T21:06:55.411Z,6.03
2022-07-30T21:09:49.708Z,6.80
2022-07-30T21:12:32.910Z,7.20
2022-07-30T21:15:24.000Z,9.60
2022-07-30T21:17:56.835Z,6.85
2022-07-30T21:20:35.966Z,8.23
2022-07-30T21:23:27.146Z,7.10
2022-07-30T21:26:13.449Z,8.32
2022-07-30T21:28:49.756Z,8.00
2022-07-30T21:32:01.473Z,7.95
2022-07-30T21:34:35.225Z,7.45
2022-07-30T21:37:21.535Z,7.78
2022-07-30T21:40:02.198Z,8.18
2022-07-30T21:42:33.554Z,8.45
2022-07-30T21:45:04.205Z,7.65
2022-07-30T21:47:39.733Z,10.77
2022-07-30T21:50:32.098Z,8.68
2022-07-30T21:53:08.187Z,9.50
2022-07-30T21:55:56.102Z,8.80
2022-07-30T21:58:39.076Z,12.23
2022-07-30T22:01:18.612Z,13.00
2022-07-30T22:04:02.932Z,8.63
2022-07-30T22:06:55.813Z,10.07
2022-07-30T22:09:41.212Z,10.05
2022-07-30T22:12:21.580Z,10.23
2022-07-30T22:15:09.256Z,11.18
2022-07-30T22:17:58.889Z,14.77
2022-07-30T22:20:42.288Z,9.30
2022-07-30T22:23:34.356Z,10.13
2022-07-30T22:26:17.419Z,9.90
2022-07-30T22:29:07.793Z,11.00
2022-07-30T22:31:50.139Z,11.23
2022-07-30T22:34:30.685Z,11.00
2022-07-30T22:37:13.466Z,10.20
2022-07-30T22:42:56.104Z,10.98
2022-07-30T22:45:49.197Z,10.50
2022-07-30T22:48:27.201Z,11.25
2022-07-30T22:50:58.452Z,10.95
2022-07-30T22:54:10.824Z,10.73
2022-07-30T22:56:48.365Z,10.93
2022-07-30T22:59:57.579Z,10.45
2022-07-30T23:02:44.339Z,11.35
2022-07-30T23:05:28.905Z,12.13
2022-07-30T23:10:41.454Z,12.15
2022-07-30T23:12:29.080Z,10.27
2022-07-30T23:13:20.107Z,13.70
2022-07-30T23:16:01.862Z,12.93
2022-07-30T23:18:36.181Z,13.40
2022-07-30T23:21:13.175Z,14.48
2022-07-30T23:23:51.162Z,15.93
2022-07-30T23:26:28.682Z,17.95
2022-07-30T23:29:03.647Z,19.52
2022-07-30T23:31:36.756Z,19.20
2022-07-30T23:34:31.710Z,17.45
2022-07-30T23:37:17.223Z,20.42
2022-07-30T23:39:56.223Z,19.55
2022-07-30T23:42:40.970Z,18.83
2022-07-30T23:45:16.061Z,19.65
2022-07-30T23:48:00.964Z,21.88
2022-07-30T23:50:52.982Z,20.90
2022-07-30T23:53:21.235Z,17.70
2022-07-30T23:55:59.959Z,16.42
2022-07-30T23:58:33.582Z,17.73
